sensor_id;sensor_type;location;lat;lon;timestamp;pressure;altitude;pressure_sealevel;temperature;humidity
28267;BME280;15525;45.568;5.448;2023-02-16T00:01:49;99280.97;;;8.22;47.64
28267;BME280;15525;45.568;5.448;2023-02-16T00:04:28;99273.88;;;8.09;48.09
28267;BME280;15525;45.568;5.448;2023-02-16T00:06:54;99278.13;;;7.99;47.83
28267;BME280;15525;45.568;5.448;2023-02-16T00:09:21;99273.06;;;7.73;48.36
28267;BME280;15525;45.568;5.448;2023-02-16T00:11:47;99290.19;;;7.83;48.55
28267;BME280;15525;45.568;5.448;2023-02-16T00:14:34;99282.47;;;7.75;48.62
28267;BME280;15525;45.568;5.448;2023-02-16T00:17:00;99295.31;;;7.85;48.06
28267;BME280;15525;45.568;5.448;2023-02-16T00:19:28;99301.44;;;7.85;48.54
28267;BME280;15525;45.568;5.448;2023-02-16T00:21:56;99300.84;;;7.83;48.45
28267;BME280;15525;45.568;5.448;2023-02-16T00:24:23;99291.13;;;7.71;48.20
28267;BME280;15525;45.568;5.448;2023-02-16T00:26:50;99300.69;;;7.78;48.32
28267;BME280;15525;45.568;5.448;2023-02-16T00:31:44;99286.69;;;7.40;48.65
28267;BME280;15525;45.568;5.448;2023-02-16T00:34:35;99302.28;;;7.61;49.09
28267;BME280;15525;45.568;5.448;2023-02-16T00:37:05;99286.41;;;7.24;49.05
28267;BME280;15525;45.568;5.448;2023-02-16T00:39:31;99310.34;;;7.30;49.31
28267;BME280;15525;45.568;5.448;2023-02-16T00:42:05;99301.63;;;7.17;49.79
28267;BME280;15525;45.568;5.448;2023-02-16T00:47:03;99312.84;;;7.50;49.12
28267;BME280;15525;45.568;5.448;2023-02-16T00:49:33;99307.19;;;7.40;48.82
28267;BME280;15525;45.568;5.448;2023-02-16T00:51:58;99291.16;;;7.22;49.23
28267;BME280;15525;45.568;5.448;2023-02-16T00:54:24;99284.22;;;7.21;48.95
28267;BME280;15525;45.568;5.448;2023-02-16T00:56:49;99299.03;;;7.35;49.13
28267;BME280;15525;45.568;5.448;2023-02-16T00:59:17;99298.94;;;7.48;48.71
28267;BME280;15525;45.568;5.448;2023-02-16T01:01:43;99288.34;;;7.41;48.59
28267;BME280;15525;45.568;5.448;2023-02-16T01:04:13;99287.56;;;7.34;48.83
28267;BME280;15525;45.568;5.448;2023-02-16T01:06:42;99268.81;;;7.23;48.65
28267;BME280;15525;45.568;5.448;2023-02-16T01:09:26;99284.22;;;7.21;49.12
28267;BME280;15525;45.568;5.448;2023-02-16T01:12:15;99279.78;;;7.08;49.60
28267;BME280;15525;45.568;5.448;2023-02-16T01:14:51;99278.19;;;7.01;49.88
28267;BME280;15525;45.568;5.448;2023-02-16T01:17:17;99261.91;;;6.91;49.78
28267;BME280;15525;45.568;5.448;2023-02-16T01:19:42;99261.69;;;6.92;49.62
28267;BME280;15525;45.568;5.448;2023-02-16T01:22:08;99270.41;;;6.99;49.51
28267;BME280;15525;45.568;5.448;2023-02-16T01:24:33;99278.16;;;7.07;49.49
28267;BME280;15525;45.568;5.448;2023-02-16T01:26:59;99275.31;;;7.02;49.40
28267;BME280;15525;45.568;5.448;2023-02-16T01:29:24;99280.22;;;7.05;49.50
28267;BME280;15525;45.568;5.448;2023-02-16T01:31:50;99277.72;;;7.10;49.79
28267;BME280;15525;45.568;5.448;2023-02-16T01:34:15;99274.69;;;7.07;49.56
28267;BME280;15525;45.568;5.448;2023-02-16T01:36:44;99276.75;;;7.05;49.38
28267;BME280;15525;45.568;5.448;2023-02-16T01:39:18;99275.88;;;7.11;50.16
28267;BME280;15525;45.568;5.448;2023-02-16T01:42:05;99270.22;;;7.01;51.06
28267;BME280;15525;45.568;5.448;2023-02-16T01:44:55;99271.63;;;7.03;50.93
28267;BME280;15525;45.568;5.448;2023-02-16T01:47:33;99272.22;;;6.81;51.05
28267;BME280;15525;45.568;5.448;2023-02-16T01:50:21;99271.78;;;6.84;51.24
28267;BME280;15525;45.568;5.448;2023-02-16T01:53:11;99264.31;;;6.99;51.07
28267;BME280;15525;45.568;5.448;2023-02-16T01:55:44;99258.19;;;6.92;50.23
28267;BME280;15525;45.568;5.448;2023-02-16T01:58:23;99263.94;;;6.95;51.01
28267;BME280;15525;45.568;5.448;2023-02-16T02:03:35;99263.38;;;6.80;50.66
28267;BME280;15525;45.568;5.448;2023-02-16T02:06:31;99258.34;;;6.72;51.18
28267;BME280;15525;45.568;5.448;2023-02-16T02:09:18;99266.22;;;6.85;51.68
28267;BME280;15525;45.568;5.448;2023-02-16T02:11:49;99234.53;;;6.53;50.80
28267;BME280;15525;45.568;5.448;2023-02-16T02:14:26;99264.69;;;6.71;50.60
28267;BME280;15525;45.568;5.448;2023-02-16T02:16:55;99270.53;;;6.86;50.02
28267;BME280;15525;45.568;5.448;2023-02-16T02:19:21;99250.31;;;6.79;49.90
28267;BME280;15525;45.568;5.448;2023-02-16T02:24:55;99247.38;;;6.87;49.83
28267;BME280;15525;45.568;5.448;2023-02-16T02:27:33;99242.22;;;6.92;49.66
28267;BME280;15525;45.568;5.448;2023-02-16T02:43:39;99253.06;;;6.66;50.26
28267;BME280;15525;45.568;5.448;2023-02-16T02:46:10;99235.97;;;6.49;50.37
28267;BME280;15525;45.568;5.448;2023-02-16T02:48:37;99243.47;;;6.58;50.07
28267;BME280;15525;45.568;5.448;2023-02-16T02:54:06;99214.28;;;6.52;50.67
28267;BME280;15525;45.568;5.448;2023-02-16T02:59:37;99228.75;;;6.56;49.98
28267;BME280;15525;45.568;5.448;2023-02-16T03:02:23;99223.31;;;6.44;50.08
28267;BME280;15525;45.568;5.448;2023-02-16T03:04:51;99193.00;;;6.21;50.55
28267;BME280;15525;45.568;5.448;2023-02-16T03:07:20;99235.97;;;6.49;50.76
28267;BME280;15525;45.568;5.448;2023-02-16T03:10:07;99240.50;;;6.42;50.42
28267;BME280;15525;45.568;5.448;2023-02-16T03:12:54;99217.50;;;6.23;50.76
28267;BME280;15525;45.568;5.448;2023-02-16T03:15:23;99236.91;;;6.30;50.82
28267;BME280;15525;45.568;5.448;2023-02-16T03:17:50;99211.63;;;6.14;50.84
28267;BME280;15525;45.568;5.448;2023-02-16T03:20:38;99211.94;;;6.31;50.46
28267;BME280;15525;45.568;5.448;2023-02-16T03:23:23;99234.59;;;6.40;50.84
28267;BME280;15525;45.568;5.448;2023-02-16T03:26:07;99234.78;;;6.45;50.55
28267;BME280;15525;45.568;5.448;2023-02-16T03:28:52;99214.31;;;6.08;50.85
28267;BME280;15525;45.568;5.448;2023-02-16T03:31:37;99232.06;;;6.14;51.38
28267;BME280;15525;45.568;5.448;2023-02-16T03:34:03;99236.28;;;6.28;51.16
28267;BME280;15525;45.568;5.448;2023-02-16T03:36:33;99239.34;;;6.31;51.12
28267;BME280;15525;45.568;5.448;2023-02-16T03:38:59;99238.34;;;6.26;51.24
28267;BME280;15525;45.568;5.448;2023-02-16T03:41:25;99220.63;;;6.13;51.04
28267;BME280;15525;45.568;5.448;2023-02-16T03:43:55;99232.91;;;6.08;51.09
28267;BME280;15525;45.568;5.448;2023-02-16T03:46:21;99221.66;;;6.06;51.49
28267;BME280;15525;45.568;5.448;2023-02-16T03:48:46;99241.28;;;6.11;51.14
28267;BME280;15525;45.568;5.448;2023-02-16T03:51:12;99245.97;;;6.16;51.40
28267;BME280;15525;45.568;5.448;2023-02-16T03:53:37;99221.25;;;6.09;51.37
28267;BME280;15525;45.568;5.448;2023-02-16T03:56:03;99240.00;;;6.20;50.98
28267;BME280;15525;45.568;5.448;2023-02-16T03:58:28;99229.38;;;6.20;51.07
28267;BME280;15525;45.568;5.448;2023-02-16T04:00:53;99225.91;;;6.20;50.55
28267;BME280;15525;45.568;5.448;2023-02-16T04:03:19;99236.97;;;6.17;51.07
28267;BME280;15525;45.568;5.448;2023-02-16T04:05:45;99243.59;;;5.88;51.94
28267;BME280;15525;45.568;5.448;2023-02-16T04:08:11;99234.88;;;5.68;52.10
28267;BME280;15525;45.568;5.448;2023-02-16T04:10:37;99247.88;;;5.89;51.78
28267;BME280;15525;45.568;5.448;2023-02-16T04:13:03;99233.63;;;5.84;51.79
28267;BME280;15525;45.568;5.448;2023-02-16T04:15:29;99262.19;;;5.95;51.54
28267;BME280;15525;45.568;5.448;2023-02-16T04:17:55;99227.94;;;5.61;51.78
28267;BME280;15525;45.568;5.448;2023-02-16T04:20:23;99268.97;;;5.84;51.72
28267;BME280;15525;45.568;5.448;2023-02-16T04:22:49;99259.53;;;5.95;51.29
28267;BME280;15525;45.568;5.448;2023-02-16T04:25:16;99270.53;;;6.05;51.11
28267;BME280;15525;45.568;5.448;2023-02-16T04:27:43;99256.66;;;6.03;50.90
28267;BME280;15525;45.568;5.448;2023-02-16T04:30:15;99248.72;;;5.77;51.67
28267;BME280;15525;45.568;5.448;2023-02-16T04:32:41;99274.25;;;5.78;51.84
28267;BME280;15525;45.568;5.448;2023-02-16T04:35:07;99270.59;;;5.79;51.46
28267;BME280;15525;45.568;5.448;2023-02-16T04:37:32;99289.78;;;5.94;51.18
28267;BME280;15525;45.568;5.448;2023-02-16T04:39:58;99255.06;;;5.89;51.01
28267;BME280;15525;45.568;5.448;2023-02-16T04:42:23;99261.63;;;5.86;51.03
28267;BME280;15525;45.568;5.448;2023-02-16T04:44:49;99271.59;;;5.78;51.79
28267;BME280;15525;45.568;5.448;2023-02-16T04:47:14;99286.09;;;5.75;51.60
28267;BME280;15525;45.568;5.448;2023-02-16T04:49:40;99257.53;;;5.71;51.04
28267;BME280;15525;45.568;5.448;2023-02-16T04:52:06;99248.16;;;5.55;51.36
28267;BME280;15525;45.568;5.448;2023-02-16T04:54:31;99288.38;;;5.72;51.60
28267;BME280;15525;45.568;5.448;2023-02-16T04:56:57;99263.28;;;5.48;51.44
28267;BME280;15525;45.568;5.448;2023-02-16T04:59:22;99271.88;;;5.50;51.97
28267;BME280;15525;45.568;5.448;2023-02-16T05:01:48;99279.00;;;5.50;52.04
28267;BME280;15525;45.568;5.448;2023-02-16T05:04:14;99251.47;;;5.44;52.06
28267;BME280;15525;45.568;5.448;2023-02-16T05:06:40;99261.44;;;5.55;51.60
28267;BME280;15525;45.568;5.448;2023-02-16T05:09:06;99265.31;;;5.66;51.55
28267;BME280;15525;45.568;5.448;2023-02-16T05:11:32;99265.53;;;5.58;51.67
28267;BME280;15525;45.568;5.448;2023-02-16T05:14:20;99274.53;;;5.57;51.76
28267;BME280;15525;45.568;5.448;2023-02-16T05:17:04;99278.41;;;5.48;52.26
28267;BME280;15525;45.568;5.448;2023-02-16T05:19:30;99283.28;;;5.51;52.13
28267;BME280;15525;45.568;5.448;2023-02-16T05:21:55;99272.28;;;5.41;52.19
28267;BME280;15525;45.568;5.448;2023-02-16T05:24:21;99276.78;;;5.47;52.32
28267;BME280;15525;45.568;5.448;2023-02-16T05:26:46;99275.94;;;5.53;51.69
28267;BME280;15525;45.568;5.448;2023-02-16T05:29:12;99278.16;;;5.69;51.57
28267;BME280;15525;45.568;5.448;2023-02-16T05:31:37;99268.59;;;5.55;51.91
28267;BME280;15525;45.568;5.448;2023-02-16T05:34:03;99263.72;;;5.45;51.75
28267;BME280;15525;45.568;5.448;2023-02-16T05:36:28;99278.59;;;5.46;52.05
28267;BME280;15525;45.568;5.448;2023-02-16T05:38:55;99285.97;;;5.38;52.22
28267;BME280;15525;45.568;5.448;2023-02-16T05:41:21;99252.06;;;5.07;52.47
28267;BME280;15525;45.568;5.448;2023-02-16T05:43:55;99263.13;;;5.04;53.41
28267;BME280;15525;45.568;5.448;2023-02-16T05:46:21;99280.25;;;5.21;52.54
28267;BME280;15525;45.568;5.448;2023-02-16T05:48:47;99270.44;;;5.15;52.84
28267;BME280;15525;45.568;5.448;2023-02-16T05:51:13;99280.03;;;5.16;53.13
28267;BME280;15525;45.568;5.448;2023-02-16T05:53:38;99276.78;;;5.21;53.24
28267;BME280;15525;45.568;5.448;2023-02-16T05:56:04;99257.00;;;5.10;53.18
28267;BME280;15525;45.568;5.448;2023-02-16T05:58:30;99272.28;;;5.21;53.05
28267;BME280;15525;45.568;5.448;2023-02-16T06:00:55;99260.03;;;5.14;53.23
28267;BME280;15525;45.568;5.448;2023-02-16T06:03:21;99271.47;;;5.08;53.33
28267;BME280;15525;45.568;5.448;2023-02-16T06:05:52;99278.00;;;5.05;54.61
28267;BME280;15525;45.568;5.448;2023-02-16T06:08:17;99275.75;;;5.15;53.81
28267;BME280;15525;45.568;5.448;2023-02-16T06:10:43;99289.03;;;5.28;53.35
28267;BME280;15525;45.568;5.448;2023-02-16T06:13:08;99293.72;;;5.46;52.98
28267;BME280;15525;45.568;5.448;2023-02-16T06:15:34;99295.56;;;5.45;53.14
28267;BME280;15525;45.568;5.448;2023-02-16T06:17:59;99283.72;;;5.41;53.26
28267;BME280;15525;45.568;5.448;2023-02-16T06:20:25;99277.38;;;5.36;52.84
28267;BME280;15525;45.568;5.448;2023-02-16T06:22:50;99297.00;;;5.54;52.32
28267;BME280;15525;45.568;5.448;2023-02-16T06:25:16;99302.69;;;5.51;52.92
28267;BME280;15525;45.568;5.448;2023-02-16T06:27:44;99290.25;;;5.45;53.19
28267;BME280;15525;45.568;5.448;2023-02-16T06:30:10;99276.78;;;5.34;52.68
28267;BME280;15525;45.568;5.448;2023-02-16T06:32:36;99278.03;;;5.38;52.78
28267;BME280;15525;45.568;5.448;2023-02-16T06:35:02;99285.16;;;5.31;53.14
28267;BME280;15525;45.568;5.448;2023-02-16T06:37:28;99283.53;;;5.30;53.11
28267;BME280;15525;45.568;5.448;2023-02-16T06:39:54;99282.69;;;5.23;53.12
28267;BME280;15525;45.568;5.448;2023-02-16T06:42:19;99298.81;;;5.34;53.29
28267;BME280;15525;45.568;5.448;2023-02-16T06:44:44;99284.56;;;5.29;53.02
28267;BME280;15525;45.568;5.448;2023-02-16T06:47:10;99280.88;;;5.30;53.14
28267;BME280;15525;45.568;5.448;2023-02-16T06:49:35;99273.75;;;5.24;53.51
28267;BME280;15525;45.568;5.448;2023-02-16T06:52:01;99271.69;;;5.26;53.42
28267;BME280;15525;45.568;5.448;2023-02-16T06:54:26;99267.41;;;5.25;53.25
28267;BME280;15525;45.568;5.448;2023-02-16T06:56:51;99274.94;;;5.28;53.26
28267;BME280;15525;45.568;5.448;2023-02-16T06:59:17;99196.78;;;4.91;52.79
28267;BME280;15525;45.568;5.448;2023-02-16T07:01:42;99264.75;;;5.31;53.16
28267;BME280;15525;45.568;5.448;2023-02-16T07:04:09;99258.00;;;5.22;53.35
28267;BME280;15525;45.568;5.448;2023-02-16T07:06:35;99283.72;;;5.35;53.25
28267;BME280;15525;45.568;5.448;2023-02-16T07:09:01;99280.25;;;5.28;53.50
28267;BME280;15525;45.568;5.448;2023-02-16T07:11:27;99282.50;;;5.24;53.30
28267;BME280;15525;45.568;5.448;2023-02-16T07:13:52;99303.53;;;5.45;52.90
28267;BME280;15525;45.568;5.448;2023-02-16T07:16:17;99305.56;;;5.43;53.20
28267;BME280;15525;45.568;5.448;2023-02-16T07:18:43;99288.63;;;5.38;53.25
28267;BME280;15525;45.568;5.448;2023-02-16T07:21:10;99308.63;;;5.34;53.30
28267;BME280;15525;45.568;5.448;2023-02-16T07:23:35;99301.69;;;5.20;53.62
28267;BME280;15525;45.568;5.448;2023-02-16T07:26:01;99308.22;;;5.30;53.71
28267;BME280;15525;45.568;5.448;2023-02-16T07:28:26;99320.25;;;5.52;53.09
28267;BME280;15525;45.568;5.448;2023-02-16T07:30:52;99302.50;;;5.53;53.21
28267;BME280;15525;45.568;5.448;2023-02-16T07:33:17;99319.84;;;5.68;53.20
28267;BME280;15525;45.568;5.448;2023-02-16T07:35:43;99316.56;;;5.79;52.60
28267;BME280;15525;45.568;5.448;2023-02-16T07:38:09;99311.06;;;5.81;52.38
28267;BME280;15525;45.568;5.448;2023-02-16T07:40:35;99315.53;;;6.00;51.99
28267;BME280;15525;45.568;5.448;2023-02-16T07:43:01;99325.28;;;6.19;51.90
28267;BME280;15525;45.568;5.448;2023-02-16T07:45:28;99320.38;;;6.22;51.82
28267;BME280;15525;45.568;5.448;2023-02-16T07:47:54;99305.03;;;6.18;51.99
28267;BME280;15525;45.568;5.448;2023-02-16T07:50:19;99310.09;;;6.39;51.62
28267;BME280;15525;45.568;5.448;2023-02-16T07:52:44;99326.72;;;6.65;51.68
28267;BME280;15525;45.568;5.448;2023-02-16T07:55:10;99307.66;;;6.75;51.39
28267;BME280;15525;45.568;5.448;2023-02-16T07:57:37;99318.03;;;6.83;51.43
28267;BME280;15525;45.568;5.448;2023-02-16T08:00:04;99311.88;;;6.89;51.56
28267;BME280;15525;45.568;5.448;2023-02-16T08:02:32;99321.56;;;7.08;51.19
28267;BME280;15525;45.568;5.448;2023-02-16T08:04:58;99316.16;;;7.21;51.20
28267;BME280;15525;45.568;5.448;2023-02-16T08:07:23;99320.25;;;7.48;51.05
28267;BME280;15525;45.568;5.448;2023-02-16T08:09:48;99328.75;;;7.56;51.25
28267;BME280;15525;45.568;5.448;2023-02-16T08:12:15;99333.22;;;7.62;51.07
28267;BME280;15525;45.568;5.448;2023-02-16T08:14:41;99326.16;;;7.74;50.89
28267;BME280;15525;45.568;5.448;2023-02-16T08:17:06;99331.03;;;7.95;50.67
28267;BME280;15525;45.568;5.448;2023-02-16T08:19:32;99339.47;;;8.17;50.46
28267;BME280;15525;45.568;5.448;2023-02-16T08:22:00;99307.31;;;8.12;50.66
28267;BME280;15525;45.568;5.448;2023-02-16T08:24:29;99345.25;;;8.50;50.46
28267;BME280;15525;45.568;5.448;2023-02-16T08:26:55;99332.25;;;8.71;50.21
28267;BME280;15525;45.568;5.448;2023-02-16T08:29:22;99324.38;;;8.76;50.07
28267;BME280;15525;45.568;5.448;2023-02-16T08:31:48;99313.50;;;8.78;50.36
28267;BME280;15525;45.568;5.448;2023-02-16T08:34:15;99337.19;;;9.15;50.11
28267;BME280;15525;45.568;5.448;2023-02-16T08:36:43;99332.22;;;9.30;49.53
28267;BME280;15525;45.568;5.448;2023-02-16T08:39:17;99322.84;;;9.51;49.55
28267;BME280;15525;45.568;5.448;2023-02-16T08:41:43;99338.09;;;9.85;50.85
28267;BME280;15525;45.568;5.448;2023-02-16T08:44:09;99340.00;;;10.07;48.71
28267;BME280;15525;45.568;5.448;2023-02-16T08:46:37;99341.72;;;10.25;48.83
28267;BME280;15525;45.568;5.448;2023-02-16T08:49:05;99339.47;;;10.45;49.26
28267;BME280;15525;45.568;5.448;2023-02-16T08:51:33;99341.06;;;10.69;48.79
28267;BME280;15525;45.568;5.448;2023-02-16T08:54:00;99321.44;;;10.80;48.39
28267;BME280;15525;45.568;5.448;2023-02-16T08:56:27;99316.34;;;10.95;48.37
28267;BME280;15525;45.568;5.448;2023-02-16T08:58:57;99340.13;;;11.19;48.75
28267;BME280;15525;45.568;5.448;2023-02-16T09:01:24;99339.81;;;11.32;48.49
28267;BME280;15525;45.568;5.448;2023-02-16T09:03:49;99345.38;;;11.59;48.03
28267;BME280;15525;45.568;5.448;2023-02-16T09:06:16;99346.47;;;11.74;47.79
28267;BME280;15525;45.568;5.448;2023-02-16T09:08:44;99350.13;;;11.85;47.71
28267;BME280;15525;45.568;5.448;2023-02-16T09:11:13;99353.19;;;12.10;47.71
28267;BME280;15525;45.568;5.448;2023-02-16T09:13:41;99339.50;;;12.28;47.38
28267;BME280;15525;45.568;5.448;2023-02-16T09:16:10;99353.28;;;12.37;47.40
28267;BME280;15525;45.568;5.448;2023-02-16T09:18:37;99357.84;;;12.58;46.81
28267;BME280;15525;45.568;5.448;2023-02-16T09:21:10;99356.50;;;12.77;46.46
28267;BME280;15525;45.568;5.448;2023-02-16T09:23:40;99348.81;;;12.85;46.40
28267;BME280;15525;45.568;5.448;2023-02-16T09:26:06;99347.44;;;13.04;46.14
28267;BME280;15525;45.568;5.448;2023-02-16T09:28:36;99351.03;;;13.41;45.57
28267;BME280;15525;45.568;5.448;2023-02-16T09:31:15;99350.66;;;13.59;45.57
28267;BME280;15525;45.568;5.448;2023-02-16T09:33:41;99345.19;;;13.81;44.86
28267;BME280;15525;45.568;5.448;2023-02-16T09:36:09;99352.53;;;13.90;45.31
28267;BME280;15525;45.568;5.448;2023-02-16T09:38:35;99351.28;;;14.08;45.24
28267;BME280;15525;45.568;5.448;2023-02-16T09:46:43;99332.09;;;14.36;44.22
28267;BME280;15525;45.568;5.448;2023-02-16T09:49:27;99341.31;;;14.45;44.04
28267;BME280;15525;45.568;5.448;2023-02-16T09:52:22;99342.31;;;14.85;43.10
28267;BME280;15525;45.568;5.448;2023-02-16T09:54:53;99360.16;;;15.01;44.07
28267;BME280;15525;45.568;5.448;2023-02-16T10:00:40;99340.25;;;15.27;42.00
28267;BME280;15525;45.568;5.448;2023-02-16T10:03:31;99347.88;;;15.55;41.71
28267;BME280;15525;45.568;5.448;2023-02-16T10:08:47;99343.00;;;15.92;41.76
28267;BME280;15525;45.568;5.448;2023-02-16T10:14:30;99345.69;;;16.07;41.38
28267;BME280;15525;45.568;5.448;2023-02-16T10:22:31;99360.78;;;16.48;40.70
28267;BME280;15525;45.568;5.448;2023-02-16T10:27:39;99350.94;;;16.82;39.38
28267;BME280;15525;45.568;5.448;2023-02-16T10:30:17;99352.03;;;16.71;40.43
28267;BME280;15525;45.568;5.448;2023-02-16T10:32:54;99344.22;;;16.70;40.10
28267;BME280;15525;45.568;5.448;2023-02-16T10:35:28;99362.66;;;17.16;39.18
28267;BME280;15525;45.568;5.448;2023-02-16T10:43:10;99360.28;;;17.53;39.18
28267;BME280;15525;45.568;5.448;2023-02-16T10:45:52;99341.59;;;17.85;38.21
28267;BME280;15525;45.568;5.448;2023-02-16T10:48:19;99338.75;;;18.05;38.72
28267;BME280;15525;45.568;5.448;2023-02-16T10:50:57;99347.72;;;17.72;37.86
28267;BME280;15525;45.568;5.448;2023-02-16T10:55:57;99352.03;;;18.30;38.49
28267;BME280;15525;45.568;5.448;2023-02-16T10:58:35;99344.63;;;18.41;37.30
28267;BME280;15525;45.568;5.448;2023-02-16T11:03:39;99325.94;;;18.63;37.53
28267;BME280;15525;45.568;5.448;2023-02-16T11:06:16;99304.88;;;18.78;36.41
28267;BME280;15525;45.568;5.448;2023-02-16T11:08:46;99345.41;;;19.30;35.08
28267;BME280;15525;45.568;5.448;2023-02-16T11:11:12;99318.09;;;19.22;36.86
28267;BME280;15525;45.568;5.448;2023-02-16T11:13:37;99325.69;;;19.43;36.66
28267;BME280;15525;45.568;5.448;2023-02-16T11:16:12;99330.53;;;19.46;35.04
28267;BME280;15525;45.568;5.448;2023-02-16T11:18:45;99324.78;;;19.66;35.77
28267;BME280;15525;45.568;5.448;2023-02-16T11:21:14;99311.84;;;19.58;36.11
28267;BME280;15525;45.568;5.448;2023-02-16T11:23:41;99320.25;;;19.43;36.26
28267;BME280;15525;45.568;5.448;2023-02-16T11:36:28;99320.28;;;20.21;32.88
28267;BME280;15525;45.568;5.448;2023-02-16T11:39:00;99315.47;;;20.31;33.99
28267;BME280;15525;45.568;5.448;2023-02-16T11:41:27;99306.03;;;20.42;34.13
28267;BME280;15525;45.568;5.448;2023-02-16T11:43:54;99310.56;;;20.47;33.87
28267;BME280;15525;45.568;5.448;2023-02-16T11:46:20;99304.09;;;20.29;33.36
28267;BME280;15525;45.568;5.448;2023-02-16T11:48:47;99303.47;;;20.32;32.95
28267;BME280;15525;45.568;5.448;2023-02-16T11:51:14;99304.00;;;20.34;32.08
28267;BME280;15525;45.568;5.448;2023-02-16T11:53:42;99292.25;;;20.07;31.95
28267;BME280;15525;45.568;5.448;2023-02-16T11:56:24;99298.66;;;20.29;29.85
28267;BME280;15525;45.568;5.448;2023-02-16T11:59:06;99303.59;;;20.81;30.29
28267;BME280;15525;45.568;5.448;2023-02-16T12:07:17;99276.81;;;20.34;31.01
28267;BME280;15525;45.568;5.448;2023-02-16T12:10:58;99287.34;;;20.76;30.77
28267;BME280;15525;45.568;5.448;2023-02-16T12:12:59;99283.38;;;21.10;31.63
28267;BME280;15525;45.568;5.448;2023-02-16T12:15:59;99277.09;;;21.23;30.42
28267;BME280;15525;45.568;5.448;2023-02-16T12:21:28;99267.09;;;21.76;31.54
28267;BME280;15525;45.568;5.448;2023-02-16T12:32:41;99248.88;;;22.24;28.88
28267;BME280;15525;45.568;5.448;2023-02-16T12:43:14;99237.91;;;22.46;29.17
28267;BME280;15525;45.568;5.448;2023-02-16T12:45:44;99237.09;;;22.45;29.33
28267;BME280;15525;45.568;5.448;2023-02-16T12:51:00;99218.91;;;22.32;28.89
28267;BME280;15525;45.568;5.448;2023-02-16T12:53:56;99198.31;;;22.09;28.55
28267;BME280;15525;45.568;5.448;2023-02-16T12:56:26;99220.13;;;21.79;28.59
28267;BME280;15525;45.568;5.448;2023-02-16T12:59:00;99215.50;;;21.88;28.54
28267;BME280;15525;45.568;5.448;2023-02-16T13:01:30;99207.63;;;22.17;28.34
28267;BME280;15525;45.568;5.448;2023-02-16T13:04:16;99210.06;;;21.66;28.33
28267;BME280;15525;45.568;5.448;2023-02-16T13:06:54;99207.72;;;22.03;28.62
28267;BME280;15525;45.568;5.448;2023-02-16T13:09:28;99216.28;;;21.80;27.54
28267;BME280;15525;45.568;5.448;2023-02-16T13:14:40;99211.28;;;22.12;27.98
28267;BME280;15525;45.568;5.448;2023-02-16T13:17:15;99189.94;;;22.62;26.84
28267;BME280;15525;45.568;5.448;2023-02-16T13:19:43;99202.19;;;22.90;28.08
28267;BME280;15525;45.568;5.448;2023-02-16T13:22:35;99193.81;;;22.86;27.38
28267;BME280;15525;45.568;5.448;2023-02-16T13:25:29;99193.50;;;23.39;25.92
28267;BME280;15525;45.568;5.448;2023-02-16T13:36:26;99174.84;;;24.33;25.34
28267;BME280;15525;45.568;5.448;2023-02-16T13:44:11;99183.06;;;23.95;26.31
28267;BME280;15525;45.568;5.448;2023-02-16T13:46:42;99174.16;;;23.61;26.82
28267;BME280;15525;45.568;5.448;2023-02-16T13:49:34;99182.50;;;23.64;26.02
28267;BME280;15525;45.568;5.448;2023-02-16T13:52:05;99180.72;;;23.77;27.19
28267;BME280;15525;45.568;5.448;2023-02-16T13:54:39;99167.47;;;23.96;26.49
28267;BME280;15525;45.568;5.448;2023-02-16T13:57:13;99168.44;;;23.83;26.73
28267;BME280;15525;45.568;5.448;2023-02-16T13:59:57;99161.03;;;24.21;26.36
28267;BME280;15525;45.568;5.448;2023-02-16T14:02:53;99170.50;;;24.61;26.37
28267;BME280;15525;45.568;5.448;2023-02-16T14:05:26;99153.63;;;24.50;26.85
28267;BME280;15525;45.568;5.448;2023-02-16T14:15:56;99158.22;;;24.38;27.40
28267;BME280;15525;45.568;5.448;2023-02-16T14:19:15;99156.28;;;24.09;26.88
28267;BME280;15525;45.568;5.448;2023-02-16T14:24:05;99157.16;;;23.38;27.62
28267;BME280;15525;45.568;5.448;2023-02-16T14:26:56;99157.22;;;23.67;27.10
28267;BME280;15525;45.568;5.448;2023-02-16T14:29:37;99154.38;;;24.59;26.37
28267;BME280;15525;45.568;5.448;2023-02-16T14:32:25;99148.09;;;25.20;25.20
28267;BME280;15525;45.568;5.448;2023-02-16T14:37:30;99155.03;;;25.50;24.72
28267;BME280;15525;45.568;5.448;2023-02-16T14:40:19;99163.88;;;24.33;25.96
28267;BME280;15525;45.568;5.448;2023-02-16T14:42:49;99165.59;;;23.71;26.28
28267;BME280;15525;45.568;5.448;2023-02-16T14:57:17;99138.13;;;25.60;23.82
28267;BME280;15525;45.568;5.448;2023-02-16T15:02:52;99163.94;;;24.94;23.80
28267;BME280;15525;45.568;5.448;2023-02-16T15:05:24;99158.84;;;24.43;24.75
28267;BME280;15525;45.568;5.448;2023-02-16T15:08:00;99164.03;;;24.07;24.86
28267;BME280;15525;45.568;5.448;2023-02-16T15:10:27;99165.06;;;24.52;25.06
28267;BME280;15525;45.568;5.448;2023-02-16T15:12:54;99163.59;;;25.49;24.11
28267;BME280;15525;45.568;5.448;2023-02-16T15:15:25;99139.97;;;25.56;23.37
28267;BME280;15525;45.568;5.448;2023-02-16T15:17:54;99135.38;;;25.16;23.71
28267;BME280;15525;45.568;5.448;2023-02-16T15:20:29;99138.22;;;24.37;23.98
28267;BME280;15525;45.568;5.448;2023-02-16T15:23:02;99139.28;;;24.94;23.60
28267;BME280;15525;45.568;5.448;2023-02-16T15:25:32;99126.72;;;25.70;23.50
28267;BME280;15525;45.568;5.448;2023-02-16T15:30:36;99138.09;;;26.29;22.86
28267;BME280;15525;45.568;5.448;2023-02-16T15:33:11;99136.97;;;25.94;22.20
28267;BME280;15525;45.568;5.448;2023-02-16T15:35:42;99156.06;;;25.46;22.44
28267;BME280;15525;45.568;5.448;2023-02-16T15:38:21;99136.34;;;25.88;21.93
28267;BME280;15525;45.568;5.448;2023-02-16T15:40:51;99138.91;;;25.93;21.73
28267;BME280;15525;45.568;5.448;2023-02-16T15:43:37;99137.50;;;25.87;21.21
28267;BME280;15525;45.568;5.448;2023-02-16T15:46:29;99119.06;;;25.76;21.14
28267;BME280;15525;45.568;5.448;2023-02-16T15:48:55;99123.63;;;25.48;22.82
28267;BME280;15525;45.568;5.448;2023-02-16T15:51:23;99130.50;;;25.90;22.65
28267;BME280;15525;45.568;5.448;2023-02-16T15:53:56;99125.72;;;25.87;21.93
28267;BME280;15525;45.568;5.448;2023-02-16T15:56:38;99130.47;;;25.42;21.40